sensor_id;sensor_type;location;lat;lon;timestamp;P1;durP1;ratioP1;P2;durP2;ratioP2
7162;SDS011;3623;47.098;15.446;2023-04-29T00:01:18;15.15;;;13.75;;
7162;SDS011;3623;47.098;15.446;2023-04-29T00:03:45;14.88;;;13.32;;
7162;SDS011;3623;47.098;15.446;2023-04-29T00:06:13;14.13;;;12.63;;
7162;SDS011;3623;47.098;15.446;2023-04-29T00:08:40;13.75;;;12.20;;
7162;SDS011;3623;47.098;15.446;2023-04-29T00:11:08;14.00;;;12.75;;
7162;SDS011;3623;47.098;15.446;2023-04-29T00:13:35;17.55;;;13.90;;
7162;SDS011;3623;47.098;15.446;2023-04-29T00:16:03;14.77;;;13.38;;
7162;SDS011;3623;47.098;15.446;2023-04-29T00:18:31;15.45;;;13.60;;
7162;SDS011;3623;47.098;15.446;2023-04-29T00:20:58;13.27;;;12.27;;
7162;SDS011;3623;47.098;15.446;2023-04-29T00:23:27;15.00;;;12.90;;
7162;SDS011;3623;47.098;15.446;2023-04-29T00:25:54;13.68;;;12.38;;
7162;SDS011;3623;47.098;15.446;2023-04-29T00:28:21;13.90;;;12.50;;
7162;SDS011;3623;47.098;15.446;2023-04-29T00:30:49;14.20;;;12.90;;
7162;SDS011;3623;47.098;15.446;2023-04-29T00:33:17;15.30;;;13.25;;
7162;SDS011;3623;47.098;15.446;2023-04-29T00:35:44;14.52;;;13.05;;
7162;SDS011;3623;47.098;15.446;2023-04-29T00:38:11;14.25;;;12.75;;
7162;SDS011;3623;47.098;15.446;2023-04-29T00:40:40;17.80;;;14.98;;
7162;SDS011;3623;47.098;15.446;2023-04-29T00:43:07;18.65;;;15.13;;
7162;SDS011;3623;47.098;15.446;2023-04-29T00:45:34;16.38;;;14.65;;
7162;SDS011;3623;47.098;15.446;2023-04-29T00:48:02;18.02;;;15.25;;
7162;SDS011;3623;47.098;15.446;2023-04-29T00:50:30;16.08;;;14.48;;
7162;SDS011;3623;47.098;15.446;2023-04-29T00:52:57;16.35;;;14.65;;
7162;SDS011;3623;47.098;15.446;2023-04-29T00:55:24;15.15;;;13.68;;
7162;SDS011;3623;47.098;15.446;2023-04-29T00:57:53;17.77;;;16.10;;
7162;SDS011;3623;47.098;15.446;2023-04-29T01:00:21;18.40;;;16.17;;
7162;SDS011;3623;47.098;15.446;2023-04-29T01:02:49;17.27;;;15.48;;
7162;SDS011;3623;47.098;15.446;2023-04-29T01:05:16;15.75;;;14.25;;
7162;SDS011;3623;47.098;15.446;2023-04-29T01:07:44;17.33;;;15.75;;
7162;SDS011;3623;47.098;15.446;2023-04-29T01:10:19;16.40;;;14.45;;
7162;SDS011;3623;47.098;15.446;2023-04-29T01:12:56;18.10;;;14.88;;
7162;SDS011;3623;47.098;15.446;2023-04-29T01:15:31;17.23;;;15.63;;
7162;SDS011;3623;47.098;15.446;2023-04-29T01:18:04;16.88;;;15.18;;
7162;SDS011;3623;47.098;15.446;2023-04-29T01:20:36;17.58;;;15.70;;
7162;SDS011;3623;47.098;15.446;2023-04-29T01:23:04;17.88;;;16.23;;
7162;SDS011;3623;47.098;15.446;2023-04-29T01:25:32;19.80;;;16.75;;
7162;SDS011;3623;47.098;15.446;2023-04-29T01:28:02;18.02;;;14.95;;
7162;SDS011;3623;47.098;15.446;2023-04-29T01:30:39;16.60;;;15.02;;
7162;SDS011;3623;47.098;15.446;2023-04-29T01:33:19;21.38;;;18.42;;
7162;SDS011;3623;47.098;15.446;2023-04-29T01:35:59;18.58;;;16.95;;
7162;SDS011;3623;47.098;15.446;2023-04-29T01:38:36;24.83;;;22.02;;
7162;SDS011;3623;47.098;15.446;2023-04-29T01:41:12;29.35;;;22.88;;
7162;SDS011;3623;47.098;15.446;2023-04-29T01:43:42;26.85;;;23.67;;
7162;SDS011;3623;47.098;15.446;2023-04-29T01:46:13;25.52;;;22.92;;
7162;SDS011;3623;47.098;15.446;2023-04-29T01:48:43;29.30;;;23.60;;
7162;SDS011;3623;47.098;15.446;2023-04-29T01:51:10;26.70;;;21.88;;
7162;SDS011;3623;47.098;15.446;2023-04-29T01:53:37;23.20;;;20.98;;
7162;SDS011;3623;47.098;15.446;2023-04-29T01:56:05;22.83;;;20.20;;
7162;SDS011;3623;47.098;15.446;2023-04-29T01:58:34;24.85;;;22.35;;
7162;SDS011;3623;47.098;15.446;2023-04-29T02:01:01;22.40;;;20.10;;
7162;SDS011;3623;47.098;15.446;2023-04-29T02:03:29;21.83;;;19.55;;
7162;SDS011;3623;47.098;15.446;2023-04-29T02:05:56;19.88;;;17.92;;
7162;SDS011;3623;47.098;15.446;2023-04-29T02:08:23;19.85;;;17.00;;
7162;SDS011;3623;47.098;15.446;2023-04-29T02:10:50;20.63;;;18.83;;
7162;SDS011;3623;47.098;15.446;2023-04-29T02:13:19;21.23;;;19.08;;
7162;SDS011;3623;47.098;15.446;2023-04-29T02:15:47;18.95;;;17.10;;
7162;SDS011;3623;47.098;15.446;2023-04-29T02:18:15;19.35;;;17.55;;
7162;SDS011;3623;47.098;15.446;2023-04-29T02:20:42;18.98;;;17.15;;
7162;SDS011;3623;47.098;15.446;2023-04-29T02:23:09;25.98;;;20.48;;
7162;SDS011;3623;47.098;15.446;2023-04-29T02:25:36;20.92;;;18.73;;
7162;SDS011;3623;47.098;15.446;2023-04-29T02:28:04;20.52;;;18.63;;
7162;SDS011;3623;47.098;15.446;2023-04-29T02:30:31;24.95;;;20.55;;
7162;SDS011;3623;47.098;15.446;2023-04-29T02:32:59;28.75;;;25.63;;
7162;SDS011;3623;47.098;15.446;2023-04-29T02:35:27;27.60;;;24.65;;
7162;SDS011;3623;47.098;15.446;2023-04-29T02:37:54;27.90;;;24.60;;
7162;SDS011;3623;47.098;15.446;2023-04-29T02:40:21;27.02;;;23.67;;
7162;SDS011;3623;47.098;15.446;2023-04-29T02:42:49;25.85;;;23.15;;
7162;SDS011;3623;47.098;15.446;2023-04-29T02:45:16;22.40;;;20.00;;
7162;SDS011;3623;47.098;15.446;2023-04-29T02:47:44;23.20;;;20.73;;
7162;SDS011;3623;47.098;15.446;2023-04-29T02:50:12;24.35;;;21.95;;
7162;SDS011;3623;47.098;15.446;2023-04-29T02:52:39;24.63;;;21.40;;
7162;SDS011;3623;47.098;15.446;2023-04-29T02:55:07;24.40;;;21.02;;
7162;SDS011;3623;47.098;15.446;2023-04-29T02:57:34;19.83;;;17.80;;
7162;SDS011;3623;47.098;15.446;2023-04-29T03:00:02;22.00;;;19.77;;
7162;SDS011;3623;47.098;15.446;2023-04-29T03:02:30;21.98;;;18.35;;
7162;SDS011;3623;47.098;15.446;2023-04-29T03:04:57;22.42;;;20.00;;
7162;SDS011;3623;47.098;15.446;2023-04-29T03:07:25;21.52;;;19.30;;
7162;SDS011;3623;47.098;15.446;2023-04-29T03:09:54;22.40;;;18.70;;
7162;SDS011;3623;47.098;15.446;2023-04-29T03:12:21;21.65;;;19.42;;
7162;SDS011;3623;47.098;15.446;2023-04-29T03:14:48;19.65;;;17.80;;
7162;SDS011;3623;47.098;15.446;2023-04-29T03:17:16;20.27;;;18.27;;
7162;SDS011;3623;47.098;15.446;2023-04-29T03:19:43;19.45;;;17.13;;
7162;SDS011;3623;47.098;15.446;2023-04-29T03:22:10;19.52;;;17.42;;
7162;SDS011;3623;47.098;15.446;2023-04-29T03:24:39;23.20;;;17.40;;
7162;SDS011;3623;47.098;15.446;2023-04-29T03:27:06;19.17;;;17.33;;
7162;SDS011;3623;47.098;15.446;2023-04-29T03:29:33;17.27;;;15.68;;
7162;SDS011;3623;47.098;15.446;2023-04-29T03:32:00;18.02;;;16.13;;
7162;SDS011;3623;47.098;15.446;2023-04-29T03:34:27;17.55;;;15.30;;
7162;SDS011;3623;47.098;15.446;2023-04-29T03:36:55;15.48;;;13.98;;
7162;SDS011;3623;47.098;15.446;2023-04-29T03:39:23;17.58;;;13.13;;
7162;SDS011;3623;47.098;15.446;2023-04-29T03:41:51;15.05;;;13.45;;
7162;SDS011;3623;47.098;15.446;2023-04-29T03:44:18;15.98;;;14.38;;
7162;SDS011;3623;47.098;15.446;2023-04-29T03:46:45;15.13;;;13.43;;
7162;SDS011;3623;47.098;15.446;2023-04-29T03:49:12;16.42;;;14.82;;
7162;SDS011;3623;47.098;15.446;2023-04-29T03:51:40;13.45;;;12.10;;
7162;SDS011;3623;47.098;15.446;2023-04-29T03:54:09;14.05;;;12.65;;
7162;SDS011;3623;47.098;15.446;2023-04-29T03:56:37;14.50;;;12.85;;
7162;SDS011;3623;47.098;15.446;2023-04-29T03:59:06;14.38;;;12.98;;
7162;SDS011;3623;47.098;15.446;2023-04-29T04:01:33;13.30;;;11.90;;
7162;SDS011;3623;47.098;15.446;2023-04-29T04:04:00;12.50;;;11.27;;
7162;SDS011;3623;47.098;15.446;2023-04-29T04:06:28;13.00;;;11.68;;
7162;SDS011;3623;47.098;15.446;2023-04-29T04:08:55;11.10;;;10.20;;
7162;SDS011;3623;47.098;15.446;2023-04-29T04:11:22;11.45;;;10.45;;
7162;SDS011;3623;47.098;15.446;2023-04-29T04:13:49;12.27;;;11.05;;
7162;SDS011;3623;47.098;15.446;2023-04-29T04:16:18;10.93;;;9.88;;
7162;SDS011;3623;47.098;15.446;2023-04-29T04:18:45;12.27;;;11.05;;
7162;SDS011;3623;47.098;15.446;2023-04-29T04:21:12;13.10;;;11.75;;
7162;SDS011;3623;47.098;15.446;2023-04-29T04:23:39;12.15;;;10.93;;
7162;SDS011;3623;47.098;15.446;2023-04-29T04:26:06;13.10;;;10.60;;
7162;SDS011;3623;47.098;15.446;2023-04-29T04:28:33;12.52;;;11.23;;
7162;SDS011;3623;47.098;15.446;2023-04-29T04:31:00;12.82;;;11.50;;
7162;SDS011;3623;47.098;15.446;2023-04-29T04:33:29;11.70;;;10.65;;
7162;SDS011;3623;47.098;15.446;2023-04-29T04:35:56;12.27;;;11.02;;
7162;SDS011;3623;47.098;15.446;2023-04-29T04:38:23;11.38;;;10.23;;
7162;SDS011;3623;47.098;15.446;2023-04-29T04:40:52;12.65;;;11.27;;
7162;SDS011;3623;47.098;15.446;2023-04-29T04:43:19;9.85;;;8.95;;
7162;SDS011;3623;47.098;15.446;2023-04-29T04:45:46;11.07;;;9.70;;
7162;SDS011;3623;47.098;15.446;2023-04-29T04:48:13;10.77;;;9.70;;
7162;SDS011;3623;47.098;15.446;2023-04-29T04:50:41;10.52;;;9.60;;
7162;SDS011;3623;47.098;15.446;2023-04-29T04:53:08;8.85;;;7.95;;
7162;SDS011;3623;47.098;15.446;2023-04-29T04:55:35;8.63;;;7.75;;
7162;SDS011;3623;47.098;15.446;2023-04-29T04:58:02;9.48;;;8.57;;
7162;SDS011;3623;47.098;15.446;2023-04-29T05:00:30;8.82;;;8.15;;
7162;SDS011;3623;47.098;15.446;2023-04-29T05:02:57;8.63;;;7.70;;
7162;SDS011;3623;47.098;15.446;2023-04-29T05:05:24;10.35;;;8.80;;
7162;SDS011;3623;47.098;15.446;2023-04-29T05:07:52;8.00;;;7.30;;
7162;SDS011;3623;47.098;15.446;2023-04-29T05:10:20;8.60;;;7.78;;
7162;SDS011;3623;47.098;15.446;2023-04-29T05:12:50;8.43;;;7.70;;
7162;SDS011;3623;47.098;15.446;2023-04-29T05:15:17;9.95;;;8.20;;
7162;SDS011;3623;47.098;15.446;2023-04-29T05:17:44;8.55;;;7.80;;
7162;SDS011;3623;47.098;15.446;2023-04-29T05:20:11;8.95;;;8.00;;
7162;SDS011;3623;47.098;15.446;2023-04-29T05:22:39;9.05;;;8.25;;
7162;SDS011;3623;47.098;15.446;2023-04-29T05:25:08;9.13;;;7.65;;
7162;SDS011;3623;47.098;15.446;2023-04-29T05:27:35;8.48;;;6.57;;
7162;SDS011;3623;47.098;15.446;2023-04-29T05:30:03;7.82;;;7.13;;
7162;SDS011;3623;47.098;15.446;2023-04-29T05:32:30;6.78;;;6.07;;
7162;SDS011;3623;47.098;15.446;2023-04-29T05:34:57;6.47;;;5.88;;
7162;SDS011;3623;47.098;15.446;2023-04-29T05:37:24;6.88;;;6.18;;
7162;SDS011;3623;47.098;15.446;2023-04-29T05:39:55;7.15;;;6.55;;
7162;SDS011;3623;47.098;15.446;2023-04-29T05:42:23;7.05;;;6.47;;
7162;SDS011;3623;47.098;15.446;2023-04-29T05:44:51;9.02;;;7.40;;
7162;SDS011;3623;47.098;15.446;2023-04-29T05:47:18;7.53;;;6.93;;
7162;SDS011;3623;47.098;15.446;2023-04-29T05:49:46;7.35;;;6.75;;
7162;SDS011;3623;47.098;15.446;2023-04-29T05:52:14;7.00;;;6.40;;
7162;SDS011;3623;47.098;15.446;2023-04-29T05:54:41;6.20;;;5.70;;
7162;SDS011;3623;47.098;15.446;2023-04-29T05:57:08;7.00;;;6.38;;
7162;SDS011;3623;47.098;15.446;2023-04-29T05:59:37;7.35;;;5.70;;
7162;SDS011;3623;47.098;15.446;2023-04-29T06:02:04;5.38;;;4.93;;
7162;SDS011;3623;47.098;15.446;2023-04-29T06:04:31;10.40;;;6.10;;
7162;SDS011;3623;47.098;15.446;2023-04-29T06:06:58;7.88;;;5.60;;
7162;SDS011;3623;47.098;15.446;2023-04-29T06:09:25;5.60;;;5.20;;
7162;SDS011;3623;47.098;15.446;2023-04-29T06:11:52;6.13;;;5.55;;
7162;SDS011;3623;47.098;15.446;2023-04-29T06:14:20;4.60;;;4.30;;
7162;SDS011;3623;47.098;15.446;2023-04-29T06:16:48;5.13;;;4.82;;
7162;SDS011;3623;47.098;15.446;2023-04-29T06:19:15;4.32;;;4.03;;
7162;SDS011;3623;47.098;15.446;2023-04-29T06:21:43;7.95;;;4.30;;
7162;SDS011;3623;47.098;15.446;2023-04-29T06:24:10;5.75;;;4.22;;
7162;SDS011;3623;47.098;15.446;2023-04-29T06:26:37;4.95;;;4.55;;
7162;SDS011;3623;47.098;15.446;2023-04-29T06:29:04;4.07;;;3.77;;
7162;SDS011;3623;47.098;15.446;2023-04-29T06:31:31;4.17;;;3.80;;
7162;SDS011;3623;47.098;15.446;2023-04-29T06:34:00;4.83;;;4.43;;
7162;SDS011;3623;47.098;15.446;2023-04-29T06:36:27;5.33;;;4.87;;
7162;SDS011;3623;47.098;15.446;2023-04-29T06:38:54;5.57;;;4.73;;
7162;SDS011;3623;47.098;15.446;2023-04-29T06:41:21;4.70;;;4.30;;
7162;SDS011;3623;47.098;15.446;2023-04-29T06:43:48;4.17;;;3.87;;
7162;SDS011;3623;47.098;15.446;2023-04-29T06:46:15;4.40;;;4.10;;
7162;SDS011;3623;47.098;15.446;2023-04-29T06:48:42;3.90;;;3.70;;
7162;SDS011;3623;47.098;15.446;2023-04-29T06:51:11;4.67;;;4.27;;
7162;SDS011;3623;47.098;15.446;2023-04-29T06:53:38;4.90;;;4.50;;
7162;SDS011;3623;47.098;15.446;2023-04-29T06:56:06;4.43;;;4.07;;
7162;SDS011;3623;47.098;15.446;2023-04-29T06:58:33;4.20;;;3.90;;
7162;SDS011;3623;47.098;15.446;2023-04-29T07:01:00;4.10;;;3.80;;
7162;SDS011;3623;47.098;15.446;2023-04-29T07:03:28;3.73;;;3.30;;
7162;SDS011;3623;47.098;15.446;2023-04-29T07:05:55;5.10;;;4.17;;
7162;SDS011;3623;47.098;15.446;2023-04-29T07:08:23;4.90;;;4.20;;
7162;SDS011;3623;47.098;15.446;2023-04-29T07:10:54;4.53;;;4.03;;
7162;SDS011;3623;47.098;15.446;2023-04-29T07:13:21;5.27;;;4.57;;
7162;SDS011;3623;47.098;15.446;2023-04-29T07:15:48;4.83;;;4.40;;
7162;SDS011;3623;47.098;15.446;2023-04-29T07:18:16;4.60;;;4.30;;
7162;SDS011;3623;47.098;15.446;2023-04-29T07:20:43;3.63;;;3.33;;
7162;SDS011;3623;47.098;15.446;2023-04-29T07:23:12;4.13;;;3.83;;
7162;SDS011;3623;47.098;15.446;2023-04-29T07:25:40;4.23;;;3.97;;
7162;SDS011;3623;47.098;15.446;2023-04-29T07:28:07;4.33;;;4.03;;
7162;SDS011;3623;47.098;15.446;2023-04-29T07:30:34;3.73;;;3.43;;
7162;SDS011;3623;47.098;15.446;2023-04-29T07:33:01;3.97;;;3.60;;
7162;SDS011;3623;47.098;15.446;2023-04-29T07:35:29;7.53;;;3.47;;
7162;SDS011;3623;47.098;15.446;2023-04-29T07:37:57;2.33;;;2.23;;
7162;SDS011;3623;47.098;15.446;2023-04-29T07:40:24;4.77;;;3.00;;
7162;SDS011;3623;47.098;15.446;2023-04-29T07:42:52;2.63;;;2.53;;
7162;SDS011;3623;47.098;15.446;2023-04-29T07:45:19;5.40;;;3.30;;
7162;SDS011;3623;47.098;15.446;2023-04-29T07:47:46;4.80;;;2.63;;
7162;SDS011;3623;47.098;15.446;2023-04-29T07:50:14;2.90;;;2.77;;
7162;SDS011;3623;47.098;15.446;2023-04-29T07:52:41;2.33;;;2.23;;
7162;SDS011;3623;47.098;15.446;2023-04-29T07:55:08;2.73;;;2.57;;
7162;SDS011;3623;47.098;15.446;2023-04-29T07:57:35;2.73;;;2.53;;
7162;SDS011;3623;47.098;15.446;2023-04-29T08:00:05;2.80;;;2.70;;
7162;SDS011;3623;47.098;15.446;2023-04-29T08:02:33;2.20;;;2.10;;
7162;SDS011;3623;47.098;15.446;2023-04-29T08:05:00;2.13;;;2.03;;
7162;SDS011;3623;47.098;15.446;2023-04-29T08:07:27;1.97;;;1.87;;
7162;SDS011;3623;47.098;15.446;2023-04-29T08:09:54;2.00;;;1.80;;
7162;SDS011;3623;47.098;15.446;2023-04-29T08:12:21;1.93;;;1.83;;
7162;SDS011;3623;47.098;15.446;2023-04-29T08:14:48;1.93;;;1.83;;
7162;SDS011;3623;47.098;15.446;2023-04-29T08:17:17;1.60;;;1.60;;
7162;SDS011;3623;47.098;15.446;2023-04-29T08:19:44;1.50;;;1.50;;
7162;SDS011;3623;47.098;15.446;2023-04-29T08:22:11;3.87;;;1.50;;
7162;SDS011;3623;47.098;15.446;2023-04-29T08:24:38;3.03;;;2.17;;
7162;SDS011;3623;47.098;15.446;2023-04-29T08:27:07;1.60;;;1.50;;
7162;SDS011;3623;47.098;15.446;2023-04-29T08:29:34;2.27;;;2.07;;
7162;SDS011;3623;47.098;15.446;2023-04-29T08:32:01;1.87;;;1.77;;
7162;SDS011;3623;47.098;15.446;2023-04-29T08:34:30;2.37;;;2.17;;
7162;SDS011;3623;47.098;15.446;2023-04-29T08:36:57;1.90;;;1.80;;
7162;SDS011;3623;47.098;15.446;2023-04-29T08:39:24;1.93;;;1.83;;
7162;SDS011;3623;47.098;15.446;2023-04-29T08:41:53;1.60;;;1.60;;
7162;SDS011;3623;47.098;15.446;2023-04-29T08:44:21;2.10;;;1.53;;
7162;SDS011;3623;47.098;15.446;2023-04-29T08:46:49;1.97;;;1.87;;
7162;SDS011;3623;47.098;15.446;2023-04-29T08:49:17;1.93;;;1.80;;
7162;SDS011;3623;47.098;15.446;2023-04-29T08:51:45;1.77;;;1.67;;
7162;SDS011;3623;47.098;15.446;2023-04-29T08:54:13;3.27;;;2.50;;
7162;SDS011;3623;47.098;15.446;2023-04-29T08:56:41;2.07;;;1.90;;
7162;SDS011;3623;47.098;15.446;2023-04-29T08:59:11;1.67;;;1.40;;
7162;SDS011;3623;47.098;15.446;2023-04-29T09:01:39;2.10;;;2.00;;
7162;SDS011;3623;47.098;15.446;2023-04-29T09:04:10;1.87;;;1.77;;
7162;SDS011;3623;47.098;15.446;2023-04-29T09:06:41;1.73;;;1.63;;
7162;SDS011;3623;47.098;15.446;2023-04-29T09:09:09;3.37;;;2.30;;
7162;SDS011;3623;47.098;15.446;2023-04-29T09:11:38;3.77;;;2.80;;
7162;SDS011;3623;47.098;15.446;2023-04-29T09:14:06;2.00;;;1.90;;
7162;SDS011;3623;47.098;15.446;2023-04-29T09:16:33;2.87;;;2.23;;
7162;SDS011;3623;47.098;15.446;2023-04-29T09:19:02;2.13;;;1.93;;
7162;SDS011;3623;47.098;15.446;2023-04-29T09:21:29;2.47;;;2.13;;
7162;SDS011;3623;47.098;15.446;2023-04-29T09:23:57;1.47;;;1.47;;
7162;SDS011;3623;47.098;15.446;2023-04-29T09:26:32;1.57;;;1.47;;
7162;SDS011;3623;47.098;15.446;2023-04-29T09:29:07;2.10;;;2.00;;
7162;SDS011;3623;47.098;15.446;2023-04-29T09:31:36;1.50;;;1.40;;
7162;SDS011;3623;47.098;15.446;2023-04-29T09:34:04;1.93;;;1.83;;
7162;SDS011;3623;47.098;15.446;2023-04-29T09:36:38;4.83;;;1.93;;
7162;SDS011;3623;47.098;15.446;2023-04-29T09:39:09;1.40;;;1.20;;
7162;SDS011;3623;47.098;15.446;2023-04-29T09:41:40;2.57;;;1.50;;
7162;SDS011;3623;47.098;15.446;2023-04-29T09:44:09;1.40;;;1.30;;
7162;SDS011;3623;47.098;15.446;2023-04-29T09:46:36;2.10;;;1.70;;
7162;SDS011;3623;47.098;15.446;2023-04-29T09:49:03;1.60;;;1.50;;
7162;SDS011;3623;47.098;15.446;2023-04-29T09:51:51;1.50;;;1.50;;
7162;SDS011;3623;47.098;15.446;2023-04-29T09:54:19;1.40;;;1.40;;
7162;SDS011;3623;47.098;15.446;2023-04-29T09:56:49;1.90;;;1.80;;
7162;SDS011;3623;47.098;15.446;2023-04-29T09:59:17;2.50;;;1.50;;
7162;SDS011;3623;47.098;15.446;2023-04-29T10:01:46;1.60;;;1.60;;
7162;SDS011;3623;47.098;15.446;2023-04-29T10:04:15;1.67;;;1.40;;
7162;SDS011;3623;47.098;15.446;2023-04-29T10:06:44;1.30;;;1.20;;
7162;SDS011;3623;47.098;15.446;2023-04-29T10:09:14;1.43;;;1.37;;
7162;SDS011;3623;47.098;15.446;2023-04-29T10:11:42;2.00;;;1.90;;
7162;SDS011;3623;47.098;15.446;2023-04-29T10:14:11;1.30;;;1.30;;
7162;SDS011;3623;47.098;15.446;2023-04-29T10:16:44;1.63;;;1.60;;
7162;SDS011;3623;47.098;15.446;2023-04-29T10:19:14;1.53;;;1.23;;
7162;SDS011;3623;47.098;15.446;2023-04-29T10:21:45;1.27;;;1.27;;
7162;SDS011;3623;47.098;15.446;2023-04-29T10:24:15;1.10;;;1.07;;
7162;SDS011;3623;47.098;15.446;2023-04-29T10:26:44;1.33;;;1.23;;
7162;SDS011;3623;47.098;15.446;2023-04-29T10:29:14;2.30;;;1.47;;
7162;SDS011;3623;47.098;15.446;2023-04-29T10:31:43;1.00;;;1.00;;
7162;SDS011;3623;47.098;15.446;2023-04-29T10:34:11;3.53;;;1.70;;
7162;SDS011;3623;47.098;15.446;2023-04-29T10:36:41;2.20;;;1.40;;
7162;SDS011;3623;47.098;15.446;2023-04-29T10:39:11;1.17;;;1.17;;
7162;SDS011;3623;47.098;15.446;2023-04-29T10:41:46;1.27;;;1.17;;
7162;SDS011;3623;47.098;15.446;2023-04-29T10:44:16;1.20;;;1.10;;
7162;SDS011;3623;47.098;15.446;2023-04-29T10:46:43;2.23;;;1.90;;
7162;SDS011;3623;47.098;15.446;2023-04-29T10:49:10;1.57;;;1.27;;
7162;SDS011;3623;47.098;15.446;2023-04-29T10:51:38;1.43;;;1.33;;
7162;SDS011;3623;47.098;15.446;2023-04-29T10:54:07;2.20;;;2.00;;
7162;SDS011;3623;47.098;15.446;2023-04-29T10:56:39;1.10;;;1.10;;
7162;SDS011;3623;47.098;15.446;2023-04-29T10:59:11;1.10;;;1.10;;
7162;SDS011;3623;47.098;15.446;2023-04-29T11:01:40;1.10;;;1.10;;
7162;SDS011;3623;47.098;15.446;2023-04-29T11:04:15;1.40;;;1.30;;
7162;SDS011;3623;47.098;15.446;2023-04-29T11:06:44;1.50;;;1.10;;
7162;SDS011;3623;47.098;15.446;2023-04-29T11:09:13;1.50;;;1.40;;
7162;SDS011;3623;47.098;15.446;2023-04-29T11:11:45;1.17;;;1.17;;
7162;SDS011;3623;47.098;15.446;2023-04-29T11:14:14;1.40;;;1.13;;
7162;SDS011;3623;47.098;15.446;2023-04-29T11:16:49;1.10;;;1.10;;
7162;SDS011;3623;47.098;15.446;2023-04-29T11:19:18;4.00;;;1.10;;
7162;SDS011;3623;47.098;15.446;2023-04-29T11:21:45;2.20;;;1.00;;
7162;SDS011;3623;47.098;15.446;2023-04-29T11:24:13;0.80;;;0.80;;
7162;SDS011;3623;47.098;15.446;2023-04-29T11:26:43;0.87;;;0.87;;
7162;SDS011;3623;47.098;15.446;2023-04-29T11:29:10;1.47;;;1.10;;
7162;SDS011;3623;47.098;15.446;2023-04-29T11:31:37;1.27;;;1.17;;
7162;SDS011;3623;47.098;15.446;2023-04-29T11:34:06;4.50;;;1.60;;
7162;SDS011;3623;47.098;15.446;2023-04-29T11:36:33;1.20;;;1.20;;
7162;SDS011;3623;47.098;15.446;2023-04-29T11:39:01;1.90;;;1.37;;
7162;SDS011;3623;47.098;15.446;2023-04-29T11:41:29;2.03;;;1.20;;
7162;SDS011;3623;47.098;15.446;2023-04-29T11:43:57;1.03;;;0.93;;
7162;SDS011;3623;47.098;15.446;2023-04-29T11:46:25;1.37;;;1.00;;
7162;SDS011;3623;47.098;15.446;2023-04-29T11:48:56;0.70;;;0.70;;
7162;SDS011;3623;47.098;15.446;2023-04-29T11:51:26;1.13;;;1.03;;
7162;SDS011;3623;47.098;15.446;2023-04-29T11:53:53;1.33;;;0.70;;
7162;SDS011;3623;47.098;15.446;2023-04-29T11:56:22;0.93;;;0.93;;
7162;SDS011;3623;47.098;15.446;2023-04-29T11:58:52;1.77;;;1.57;;
7162;SDS011;3623;47.098;15.446;2023-04-29T12:01:21;0.73;;;0.70;;
7162;SDS011;3623;47.098;15.446;2023-04-29T12:03:48;0.60;;;0.60;;
7162;SDS011;3623;47.098;15.446;2023-04-29T12:06:15;0.70;;;0.70;;
7162;SDS011;3623;47.098;15.446;2023-04-29T12:08:45;2.40;;;0.70;;
7162;SDS011;3623;47.098;15.446;2023-04-29T12:11:12;1.03;;;1.00;;
7162;SDS011;3623;47.098;15.446;2023-04-29T12:13:40;0.70;;;0.70;;
7162;SDS011;3623;47.098;15.446;2023-04-29T12:16:07;0.60;;;0.60;;
7162;SDS011;3623;47.098;15.446;2023-04-29T12:18:35;0.80;;;0.80;;
7162;SDS011;3623;47.098;15.446;2023-04-29T12:21:03;1.07;;;0.83;;
7162;SDS011;3623;47.098;15.446;2023-04-29T12:23:32;1.47;;;0.77;;
7162;SDS011;3623;47.098;15.446;2023-04-29T12:26:03;0.60;;;0.60;;
7162;SDS011;3623;47.098;15.446;2023-04-29T12:28:30;0.90;;;0.50;;
7162;SDS011;3623;47.098;15.446;2023-04-29T12:30:57;0.90;;;0.90;;
7162;SDS011;3623;47.098;15.446;2023-04-29T12:33:24;0.80;;;0.60;;
7162;SDS011;3623;47.098;15.446;2023-04-29T12:35:53;0.50;;;0.50;;
7162;SDS011;3623;47.098;15.446;2023-04-29T12:38:21;0.83;;;0.50;;
7162;SDS011;3623;47.098;15.446;2023-04-29T12:40:51;0.57;;;0.50;;
7162;SDS011;3623;47.098;15.446;2023-04-29T12:43:24;1.10;;;0.60;;
7162;SDS011;3623;47.098;15.446;2023-04-29T12:45:52;0.70;;;0.47;;
7162;SDS011;3623;47.098;15.446;2023-04-29T12:48:21;0.80;;;0.50;;
7162;SDS011;3623;47.098;15.446;2023-04-29T12:50:54;0.60;;;0.60;;
7162;SDS011;3623;47.098;15.446;2023-04-29T12:53:22;0.50;;;0.50;;
7162;SDS011;3623;47.098;15.446;2023-04-29T12:55:49;0.57;;;0.57;;
7162;SDS011;3623;47.098;15.446;2023-04-29T12:58:17;1.03;;;0.60;;
7162;SDS011;3623;47.098;15.446;2023-04-29T13:00:45;0.63;;;0.63;;
7162;SDS011;3623;47.098;15.446;2023-04-29T13:03:12;1.13;;;0.80;;
7162;SDS011;3623;47.098;15.446;2023-04-29T13:05:40;0.60;;;0.60;;
7162;SDS011;3623;47.098;15.446;2023-04-29T13:08:07;0.70;;;0.70;;
7162;SDS011;3623;47.098;15.446;2023-04-29T13:10:34;0.60;;;0.60;;
7162;SDS011;3623;47.098;15.446;2023-04-29T13:13:01;1.57;;;0.50;;
7162;SDS011;3623;47.098;15.446;2023-04-29T13:15:28;0.70;;;0.63;;
7162;SDS011;3623;47.098;15.446;2023-04-29T13:17:58;0.50;;;0.50;;
7162;SDS011;3623;47.098;15.446;2023-04-29T13:20:26;0.80;;;0.80;;
7162;SDS011;3623;47.098;15.446;2023-04-29T13:22:53;1.27;;;0.80;;
7162;SDS011;3623;47.098;15.446;2023-04-29T13:25:20;0.50;;;0.50;;
7162;SDS011;3623;47.098;15.446;2023-04-29T13:27:47;0.73;;;0.53;;
7162;SDS011;3623;47.098;15.446;2023-04-29T13:30:15;0.60;;;0.60;;
7162;SDS011;3623;47.098;15.446;2023-04-29T13:32:42;0.90;;;0.90;;
7162;SDS011;3623;47.098;15.446;2023-04-29T13:35:11;0.60;;;0.60;;
7162;SDS011;3623;47.098;15.446;2023-04-29T13:37:38;1.13;;;1.13;;
7162;SDS011;3623;47.098;15.446;2023-04-29T13:40:05;0.60;;;0.60;;
7162;SDS011;3623;47.098;15.446;2023-04-29T13:42:33;0.83;;;0.83;;
7162;SDS011;3623;47.098;15.446;2023-04-29T13:45:01;0.80;;;0.80;;
7162;SDS011;3623;47.098;15.446;2023-04-29T13:47:28;0.90;;;0.90;;
7162;SDS011;3623;47.098;15.446;2023-04-29T13:49:55;0.93;;;0.93;;
7162;SDS011;3623;47.098;15.446;2023-04-29T13:52:23;4.20;;;1.10;;
7162;SDS011;3623;47.098;15.446;2023-04-29T13:54:50;1.27;;;0.80;;
7162;SDS011;3623;47.098;15.446;2023-04-29T13:57:18;0.70;;;0.70;;
7162;SDS011;3623;47.098;15.446;2023-04-29T13:59:45;0.90;;;0.90;;
7162;SDS011;3623;47.098;15.446;2023-04-29T14:02:12;1.23;;;0.80;;
7162;SDS011;3623;47.098;15.446;2023-04-29T14:04:39;0.77;;;0.77;;
7162;SDS011;3623;47.098;15.446;2023-04-29T14:07:06;0.80;;;0.80;;
7162;SDS011;3623;47.098;15.446;2023-04-29T14:09:35;0.90;;;0.90;;
7162;SDS011;3623;47.098;15.446;2023-04-29T14:12:02;0.60;;;0.60;;
7162;SDS011;3623;47.098;15.446;2023-04-29T14:14:29;0.70;;;0.70;;
7162;SDS011;3623;47.098;15.446;2023-04-29T14:16:56;0.70;;;0.60;;
7162;SDS011;3623;47.098;15.446;2023-04-29T14:19:25;0.80;;;0.80;;
7162;SDS011;3623;47.098;15.446;2023-04-29T14:21:52;0.60;;;0.60;;
7162;SDS011;3623;47.098;15.446;2023-04-29T14:24:19;0.70;;;0.70;;
7162;SDS011;3623;47.098;15.446;2023-04-29T14:26:48;1.17;;;0.70;;
7162;SDS011;3623;47.098;15.446;2023-04-29T14:29:16;0.63;;;0.63;;
7162;SDS011;3623;47.098;15.446;2023-04-29T14:31:43;0.80;;;0.80;;
7162;SDS011;3623;47.098;15.446;2023-04-29T14:34:10;0.60;;;0.60;;
7162;SDS011;3623;47.098;15.446;2023-04-29T14:36:37;0.93;;;0.60;;
7162;SDS011;3623;47.098;15.446;2023-04-29T14:39:05;0.83;;;0.73;;
7162;SDS011;3623;47.098;15.446;2023-04-29T14:41:32;0.70;;;0.70;;
7162;SDS011;3623;47.098;15.446;2023-04-29T14:44:01;0.80;;;0.80;;
7162;SDS011;3623;47.098;15.446;2023-04-29T14:46:28;0.60;;;0.60;;
7162;SDS011;3623;47.098;15.446;2023-04-29T14:48:57;3.40;;;1.57;;
7162;SDS011;3623;47.098;15.446;2023-04-29T14:51:24;0.80;;;0.80;;
7162;SDS011;3623;47.098;15.446;2023-04-29T14:53:52;0.90;;;0.90;;
7162;SDS011;3623;47.098;15.446;2023-04-29T14:56:19;1.53;;;0.70;;
7162;SDS011;3623;47.098;15.446;2023-04-29T14:58:46;0.67;;;0.67;;